Pagrindinis puslapis
METAR-TAF:

METAR-TAF

Oro uostai :

Cayo Coco, Kuba

platuma: 22-27-40N, ilguma: 078-19-42W, Aukštis: 4 m

Dabartinis oras

Ataskaita buvo paskelbta 1 valandą ir 16 minutes, ne 04:50 UTC
Vėjas 6 kt iš Pietryčių, svyruoja nuo Rytų ir Pietų/Pietryčių
Temperatūra 23°C
Drėgmė 89%
Slėgis 1012 hPa
Matomumas: 9000 m
Išsisklaidę debesys ne aukštis 2000 ft

METAR: MUCC 220450Z 13006KT 100V160 9000 SCT020 23/21 Q1012

Laikas: 02:06 (06:06 UTC)

Prognozė

Ataskaita buvo paskelbta 1 valandą ir 6 minutes, ne 05:00 UTC
Prognozė galioja nuo 22 metu 06 UTC su 23 metu 06 UTC
Vėjas 5 kt nuo kintamojo kryptimis
Matomumas: 9000 m
Išsisklaidę debesys ne aukštis 2000 ft
Tapsmas
nuo 22 metu 15 UTC su 22 metu 17 UTC
Vėjas 9 kt iš Rytų
Tapsmas
nuo 23 metu 01 UTC su 23 metu 03 UTC
Vėjas 5 kt nuo kintamojo kryptimis

TAF: MUCC 220500Z 2206/2306 VRB05KT 9000 SCT020 BECMG 2215/2217 08009KT BECMG 2301/2303 VRB05KT

Orai ataskaitas ir orų prognozės (METAR, TAF).

turimą stotys yra geltonos ir raudonos taškus žemėlapyje.

Perkelti pele per norėdami pamatyti stoties vardą.

Tada spustelėkite, norėdami matyti oro stebėjimo ir prognozės.

Norėdami pakeisti žemėlapį: spustelėkite ant žalios mygtukų su juodo kryžiaus žemyn,; žalią mygtuką su brūkšneliu, jei norite nutolinti; arba žalių rodyklių gretimoms žemėlapius.


METAR-TAF: